Time;durP1;ratioP1;P1;durP2;ratioP2;P2;SDS_P1;SDS_P2;PMS_P1;PMS_P2;Temp;Humidity;BMP_temperature;BMP_pressure;BME280_temperature;BME280_humidity;BME280_pressure;Samples;Min_cycle;Max_cycle;Signal;HPM_P1;HPM_P2
2023/06/25 00:02:05;;;;;;;6.65;5.03;;;15.40;99.90;;;;;;5020421;28;20022;-31
2023/06/25 00:04:32;;;;;;;6.40;5.10;;;15.50;99.90;;;;;;5022017;28;20076;-33
2023/06/25 00:06:58;;;;;;;7.82;4.97;;;15.50;99.90;;;;;;5024306;28;20060;-31
2023/06/25 00:09:24;;;;;;;7.47;4.60;;;15.30;99.90;;;;;;5025013;28;20056;-32
2023/06/25 00:11:49;;;;;;;5.22;4.30;;;15.20;99.90;;;;;;5025605;28;20034;-32
2023/06/25 00:14:15;;;;;;;6.25;4.90;;;15.20;99.90;;;;;;5021989;28;20025;-32
2023/06/25 00:16:40;;;;;;;7.25;5.55;;;15.10;99.90;;;;;;5023472;28;20051;-32
2023/06/25 00:19:07;;;;;;;8.73;5.32;;;15.10;99.90;;;;;;5022805;28;20111;-32
2023/06/25 00:21:32;;;;;;;6.05;5.00;;;15.10;99.90;;;;;;5025748;28;20111;-32
2023/06/25 00:23:58;;;;;;;5.85;5.18;;;14.90;99.90;;;;;;5021948;28;20033;-31
2023/06/25 00:26:23;;;;;;;6.35;5.07;;;14.70;99.90;;;;;;5024060;28;20141;-34
2023/06/25 00:28:50;;;;;;;9.30;5.38;;;14.50;99.90;;;;;;5021706;28;20048;-31
2023/06/25 00:31:15;;;;;;;7.40;4.63;;;14.30;99.90;;;;;;5025747;28;20037;-31
2023/06/25 00:33:42;;;;;;;5.07;4.57;;;14.30;99.90;;;;;;5025308;28;20765;-33
2023/06/25 00:36:08;;;;;;;6.55;4.65;;;14.20;99.90;;;;;;5021922;28;20068;-34
2023/06/25 00:38:38;;;;;;;5.78;5.00;;;14.30;99.90;;;;;;5018958;28;20041;-32
2023/06/25 00:41:11;;;;;;;6.53;5.25;;;14.40;99.90;;;;;;5022974;28;20040;-31
2023/06/25 00:43:41;;;;;;;9.13;6.18;;;14.50;99.90;;;;;;5024491;28;20092;-32
2023/06/25 00:46:12;;;;;;;9.07;6.53;;;14.50;99.90;;;;;;5022567;28;20044;-31
2023/06/25 00:48:45;;;;;;;7.22;6.00;;;14.20;99.90;;;;;;5023282;28;20029;-31
2023/06/25 00:51:14;;;;;;;8.93;6.78;;;13.90;99.90;;;;;;5024070;28;20030;-31
2023/06/25 00:53:40;;;;;;;8.02;6.15;;;14.00;99.90;;;;;;5022937;28;20030;-31
2023/06/25 00:56:06;;;;;;;8.07;5.90;;;14.00;99.90;;;;;;5007470;28;20076;-41
2023/06/25 00:58:34;;;;;;;8.95;6.22;;;13.80;99.90;;;;;;5019155;28;20025;-41
2023/06/25 01:01:01;;;;;;;7.93;6.18;;;13.70;99.90;;;;;;5019901;28;20087;-31
2023/06/25 01:03:42;;;;;;;7.60;6.38;;;13.90;99.90;;;;;;5018335;28;20033;-36
2023/06/25 01:06:29;;;;;;;7.55;5.93;;;13.90;99.90;;;;;;5023078;28;20388;-34
2023/06/25 01:08:59;;;;;;;7.25;6.15;;;14.10;99.90;;;;;;5023445;28;20049;-35
2023/06/25 01:11:26;;;;;;;7.78;6.15;;;14.10;99.90;;;;;;5023020;28;20042;-33
2023/06/25 01:13:51;;;;;;;8.25;6.38;;;14.10;99.90;;;;;;5020859;28;20045;-34
2023/06/25 01:16:17;;;;;;;7.07;5.60;;;14.10;99.90;;;;;;5021613;28;20548;-34
2023/06/25 01:18:43;;;;;;;7.90;5.50;;;14.10;99.90;;;;;;5022762;28;20036;-34
2023/06/25 01:21:10;;;;;;;8.60;6.00;;;14.10;99.90;;;;;;5020033;28;20036;-33
2023/06/25 01:23:36;;;;;;;7.55;6.53;;;14.10;99.90;;;;;;5020790;28;20034;-33
2023/06/25 01:26:02;;;;;;;7.93;6.70;;;14.10;99.90;;;;;;5021339;28;20076;-35
2023/06/25 01:28:28;;;;;;;9.80;7.18;;;14.00;99.90;;;;;;5021329;28;20077;-33
2023/06/25 01:30:54;;;;;;;9.52;7.00;;;14.00;99.90;;;;;;5020412;28;20494;-35
2023/06/25 01:33:21;;;;;;;9.38;6.88;;;14.00;99.90;;;;;;5020891;28;20025;-35
2023/06/25 01:35:46;;;;;;;10.38;6.00;;;13.90;99.90;;;;;;5022224;28;20029;-36
2023/06/25 01:38:12;;;;;;;7.38;6.00;;;13.90;99.90;;;;;;5016880;28;20033;-33
2023/06/25 01:40:38;;;;;;;7.63;5.50;;;13.80;99.90;;;;;;5021702;28;20052;-33
2023/06/25 01:43:04;;;;;;;4.88;4.38;;;13.70;99.90;;;;;;5021387;28;20613;-35
2023/06/25 01:45:29;;;;;;;4.85;4.35;;;13.60;99.90;;;;;;5020430;28;20030;-35
2023/06/25 01:47:55;;;;;;;3.60;3.30;;;13.40;99.90;;;;;;5022865;28;20033;-33
2023/06/25 01:50:20;;;;;;;3.83;3.53;;;13.30;99.90;;;;;;5022969;28;20095;-33
2023/06/25 01:52:46;;;;;;;4.85;4.20;;;13.30;99.90;;;;;;5018983;28;20497;-35
2023/06/25 01:55:12;;;;;;;5.97;4.78;;;13.40;99.90;;;;;;5020832;28;20026;-33
2023/06/25 01:57:37;;;;;;;5.90;4.93;;;13.50;99.90;;;;;;5017951;28;20021;-34
2023/06/25 02:00:06;;;;;;;7.10;4.80;;;13.50;99.90;;;;;;5022040;28;20057;-35
2023/06/25 02:02:32;;;;;;;6.93;5.60;;;13.50;99.90;;;;;;5017408;28;20108;-36
2023/06/25 02:04:57;;;;;;;8.80;6.10;;;13.50;99.90;;;;;;5018433;28;20483;-34
2023/06/25 02:07:23;;;;;;;6.28;5.07;;;13.40;99.90;;;;;;5014768;28;20486;-33
2023/06/25 02:09:49;;;;;;;8.48;5.68;;;13.40;99.90;;;;;;5004116;28;20026;-33
2023/06/25 02:12:14;;;;;;;7.03;6.15;;;13.30;99.90;;;;;;5018819;28;20032;-33
2023/06/25 02:14:40;;;;;;;8.40;5.60;;;13.40;99.90;;;;;;5025426;28;20693;-42
2023/06/25 02:17:05;;;;;;;5.85;5.25;;;13.40;99.90;;;;;;5028572;28;20056;-42
2023/06/25 02:19:31;;;;;;;8.32;5.95;;;13.40;99.90;;;;;;5026148;28;20045;-40
2023/06/25 02:21:57;;;;;;;6.70;5.50;;;13.40;99.90;;;;;;5009887;28;20037;-41
2023/06/25 02:24:23;;;;;;;7.78;6.20;;;13.40;99.90;;;;;;5024410;28;20064;-42
2023/06/25 02:26:48;;;;;;;7.43;5.78;;;13.40;99.90;;;;;;5022732;28;20033;-42
2023/06/25 02:29:14;;;;;;;7.28;5.70;;;13.40;99.90;;;;;;5022088;28;20599;-42
2023/06/25 02:31:40;;;;;;;7.18;5.00;;;13.40;99.90;;;;;;5021283;28;20033;-43
2023/06/25 02:34:05;;;;;;;6.28;4.18;;;13.30;99.90;;;;;;5008640;28;20117;-42
2023/06/25 02:36:31;;;;;;;4.15;3.75;;;13.30;99.90;;;;;;5023602;28;20049;-41
2023/06/25 02:38:57;;;;;;;6.55;4.20;;;13.20;99.90;;;;;;5024348;28;20041;-39
2023/06/25 02:41:22;;;;;;;5.70;4.88;;;13.20;99.90;;;;;;5022222;28;20345;-42
2023/06/25 02:43:48;;;;;;;6.50;5.15;;;13.10;99.90;;;;;;5023842;28;20057;-41
2023/06/25 02:46:13;;;;;;;4.00;3.58;;;13.00;99.90;;;;;;5019081;28;20026;-42
2023/06/25 02:48:42;;;;;;;4.63;4.10;;;13.00;99.90;;;;;;5022929;28;20048;-40
2023/06/25 02:51:09;;;;;;;6.15;5.07;;;13.00;99.90;;;;;;5024337;28;20039;-41
2023/06/25 02:53:34;;;;;;;6.63;5.30;;;13.10;99.90;;;;;;5022764;28;20121;-40
2023/06/25 02:56:00;;;;;;;7.25;5.32;;;13.10;99.90;;;;;;5022485;28;20089;-39
2023/06/25 02:58:25;;;;;;;7.65;6.15;;;13.10;99.90;;;;;;5021260;28;20080;-42
2023/06/25 03:00:51;;;;;;;6.55;5.20;;;13.00;99.90;;;;;;5024160;28;20029;-42
2023/06/25 03:03:17;;;;;;;7.47;5.53;;;12.80;99.90;;;;;;5020080;28;20478;-40
2023/06/25 03:05:42;;;;;;;6.97;5.68;;;12.80;99.90;;;;;;5021322;28;20340;-42
2023/06/25 03:08:08;;;;;;;9.30;6.75;;;12.80;99.90;;;;;;5024417;28;20037;-42
2023/06/25 03:10:37;;;;;;;8.98;6.85;;;12.80;99.90;;;;;;5016935;28;20042;-40
2023/06/25 03:13:03;;;;;;;7.63;5.75;;;12.90;99.90;;;;;;5023915;28;20584;-42
2023/06/25 03:15:29;;;;;;;7.90;6.35;;;12.80;99.90;;;;;;5021945;28;20105;-42
2023/06/25 03:17:54;;;;;;;6.80;5.25;;;12.70;99.90;;;;;;5022971;28;20108;-41
2023/06/25 03:20:20;;;;;;;9.50;5.90;;;12.70;99.90;;;;;;5025416;28;20071;-40
2023/06/25 03:22:46;;;;;;;7.13;5.88;;;12.70;99.90;;;;;;5020460;28;20124;-38
2023/06/25 03:25:11;;;;;;;6.70;5.38;;;12.60;99.90;;;;;;5026853;28;20021;-41
2023/06/25 03:27:37;;;;;;;6.72;5.57;;;12.60;99.90;;;;;;5022101;28;20057;-38
2023/06/25 03:30:04;;;;;;;5.35;4.80;;;12.70;99.90;;;;;;5008462;28;20069;-41
2023/06/25 03:32:29;;;;;;;7.40;5.55;;;12.70;99.90;;;;;;5022383;28;20456;-42
2023/06/25 03:34:55;;;;;;;10.63;5.45;;;12.70;99.90;;;;;;5021045;28;20100;-42
2023/06/25 03:37:21;;;;;;;7.80;5.57;;;12.70;99.90;;;;;;5020033;28;20051;-41
2023/06/25 03:39:47;;;;;;;5.57;4.82;;;12.60;99.90;;;;;;5020430;28;20041;-39
2023/06/25 03:42:13;;;;;;;5.20;4.70;;;12.70;99.90;;;;;;5021739;28;20041;-41
2023/06/25 03:44:47;;;;;;;5.32;4.80;;;12.70;99.90;;;;;;5024373;28;20029;-39
2023/06/25 03:47:13;;;;;;;5.15;4.65;;;12.60;99.90;;;;;;5021205;28;20384;-41
2023/06/25 03:49:38;;;;;;;5.70;4.22;;;12.60;99.90;;;;;;5021274;28;20056;-41
2023/06/25 03:52:04;;;;;;;4.95;4.45;;;12.60;99.90;;;;;;5023857;28;20088;-40
2023/06/25 03:54:30;;;;;;;5.10;4.07;;;12.60;99.90;;;;;;5021743;28;20113;-41
2023/06/25 03:56:55;;;;;;;3.47;3.17;;;12.60;99.90;;;;;;5023711;28;20018;-40
2023/06/25 03:59:21;;;;;;;3.95;3.40;;;12.50;99.90;;;;;;5024346;28;20033;-42
2023/06/25 04:01:47;;;;;;;4.35;3.95;;;12.50;99.90;;;;;;5022197;28;20419;-39
2023/06/25 04:04:12;;;;;;;5.18;4.68;;;12.60;99.90;;;;;;5022495;28;20033;-41
2023/06/25 04:06:38;;;;;;;5.05;4.55;;;12.70;99.90;;;;;;5018875;28;20132;-41
2023/06/25 04:09:03;;;;;;;5.25;4.85;;;12.70;99.90;;;;;;5023051;28;20045;-41
2023/06/25 04:11:29;;;;;;;5.30;4.80;;;12.80;99.90;;;;;;5022462;28;20033;-40
2023/06/25 04:13:54;;;;;;;4.80;4.40;;;12.90;99.90;;;;;;5017132;28;20509;-39
2023/06/25 04:16:20;;;;;;;5.32;4.82;;;12.90;99.90;;;;;;5022756;28;20025;-41
2023/06/25 04:18:46;;;;;;;4.45;4.05;;;12.80;99.90;;;;;;5023145;28;20372;-40
2023/06/25 04:21:11;;;;;;;4.90;4.40;;;12.70;99.90;;;;;;5020651;28;20041;-41
2023/06/25 04:23:37;;;;;;;4.88;4.47;;;12.70;99.90;;;;;;5023159;28;20112;-42
2023/06/25 04:26:02;;;;;;;9.02;6.60;;;12.80;99.90;;;;;;5025188;28;20033;-41
2023/06/25 04:28:28;;;;;;;10.20;7.72;;;13.00;99.90;;;;;;5023219;28;20037;-41
2023/06/25 04:30:53;;;;;;;10.98;7.97;;;13.20;99.90;;;;;;5022295;28;20068;-40
2023/06/25 04:33:20;;;;;;;11.18;8.27;;;13.20;99.90;;;;;;5019917;28;20479;-41
2023/06/25 04:35:45;;;;;;;12.30;7.70;;;13.30;99.90;;;;;;5022947;28;20104;-41
2023/06/25 04:38:11;;;;;;;9.57;7.78;;;13.30;99.90;;;;;;5023632;28;20739;-41
2023/06/25 04:40:37;;;;;;;9.95;8.60;;;13.40;99.90;;;;;;5021841;28;20036;-39
2023/06/25 04:43:02;;;;;;;10.73;8.02;;;13.30;99.90;;;;;;5018759;28;20061;-41
2023/06/25 04:45:28;;;;;;;11.05;8.10;;;13.40;99.90;;;;;;5017965;28;20033;-35
2023/06/25 04:47:53;;;;;;;9.10;7.93;;;13.50;99.90;;;;;;5016579;28;20088;-41
2023/06/25 04:50:20;;;;;;;9.13;7.22;;;13.50;99.90;;;;;;5018650;28;20033;-40
2023/06/25 04:52:45;;;;;;;10.38;7.70;;;13.60;99.90;;;;;;5016732;28;20033;-42
2023/06/25 04:55:11;;;;;;;8.82;7.10;;;13.70;99.90;;;;;;5020555;28;20021;-39
2023/06/25 04:57:37;;;;;;;8.98;6.93;;;13.70;99.90;;;;;;5024114;28;20025;-37
2023/06/25 05:00:04;;;;;;;8.75;7.10;;;13.80;99.90;;;;;;5021349;28;20036;-42
2023/06/25 05:02:29;;;;;;;8.05;6.72;;;13.90;99.90;;;;;;5020143;28;20125;-42
2023/06/25 05:04:55;;;;;;;7.90;6.93;;;14.00;99.90;;;;;;5017397;28;20109;-40
2023/06/25 05:07:20;;;;;;;8.90;6.88;;;14.10;99.90;;;;;;5022990;28;20105;-40
2023/06/25 05:09:46;;;;;;;8.95;6.95;;;14.20;99.90;;;;;;5022432;28;20033;-36
2023/06/25 05:12:11;;;;;;;9.68;7.80;;;14.30;99.90;;;;;;5019276;28;20430;-39
2023/06/25 05:14:37;;;;;;;10.25;8.15;;;14.40;99.90;;;;;;5020472;28;20029;-42
2023/06/25 05:17:03;;;;;;;9.75;7.95;;;14.50;99.90;;;;;;5020876;28;20028;-42
2023/06/25 05:19:29;;;;;;;10.30;7.70;;;14.50;99.90;;;;;;5017558;28;20037;-39
2023/06/25 05:21:55;;;;;;;11.13;8.63;;;14.60;99.90;;;;;;4999399;28;20041;-40
2023/06/25 05:24:20;;;;;;;10.45;8.40;;;14.70;99.90;;;;;;5022400;28;20112;-40
2023/06/25 05:26:46;;;;;;;10.65;8.70;;;14.80;99.90;;;;;;5019475;28;20383;-40
2023/06/25 05:29:11;;;;;;;10.48;8.20;;;14.90;99.90;;;;;;5021202;28;20029;-41
2023/06/25 05:31:37;;;;;;;10.43;7.88;;;15.10;99.90;;;;;;5021110;28;20414;-40
2023/06/25 05:34:02;;;;;;;10.43;8.13;;;15.20;99.90;;;;;;5018735;28;20028;-42
2023/06/25 05:36:29;;;;;;;10.93;8.13;;;15.30;99.90;;;;;;5018394;28;20028;-33
2023/06/25 05:38:54;;;;;;;10.93;7.88;;;15.50;99.90;;;;;;5022083;28;20107;-40
2023/06/25 05:41:20;;;;;;;10.40;7.47;;;15.80;99.90;;;;;;5005045;28;20159;-42
2023/06/25 05:43:45;;;;;;;10.40;8.23;;;15.90;99.90;;;;;;5022186;28;20038;-39
2023/06/25 05:46:13;;;;;;;10.80;7.68;;;16.10;99.90;;;;;;5024167;28;20041;-42
2023/06/25 05:48:39;;;;;;;12.03;8.57;;;16.20;99.90;;;;;;5022410;28;20052;-42
2023/06/25 05:51:05;;;;;;;10.35;8.23;;;16.50;99.90;;;;;;5022542;28;21159;-42
2023/06/25 05:53:39;;;;;;;11.10;7.78;;;16.70;99.90;;;;;;5020408;28;20049;-42
2023/06/25 05:56:05;;;;;;;10.55;7.78;;;16.90;99.90;;;;;;5026882;28;20172;-36
2023/06/25 05:58:30;;;;;;;9.30;7.28;;;16.90;99.90;;;;;;5026998;28;20718;-41
2023/06/25 06:00:56;;;;;;;11.20;7.97;;;17.10;99.90;;;;;;5025681;28;20040;-38
2023/06/25 06:03:21;;;;;;;10.00;7.53;;;17.30;99.90;;;;;;5023038;28;20478;-42
2023/06/25 06:05:47;;;;;;;10.52;8.13;;;17.40;99.90;;;;;;5023936;28;20041;-42
2023/06/25 06:08:13;;;;;;;10.07;8.30;;;17.60;99.90;;;;;;5024677;28;20041;-41
2023/06/25 06:10:39;;;;;;;10.32;8.13;;;17.80;99.90;;;;;;5023722;28;20030;-42
2023/06/25 06:13:05;;;;;;;10.60;7.82;;;18.00;99.90;;;;;;5025529;28;20087;-36
2023/06/25 06:15:30;;;;;;;10.32;7.65;;;18.10;99.90;;;;;;5024839;28;20589;-39
2023/06/25 06:17:56;;;;;;;8.68;6.85;;;18.10;99.90;;;;;;5023697;28;20021;-42
2023/06/25 06:20:21;;;;;;;9.88;7.10;;;18.20;99.90;;;;;;5022937;28;20061;-37
2023/06/25 06:22:47;;;;;;;10.07;7.20;;;18.40;99.90;;;;;;5022419;28;20028;-40
2023/06/25 06:25:13;;;;;;;11.73;7.10;;;18.60;99.90;;;;;;5022284;28;20029;-40
2023/06/25 06:27:38;;;;;;;9.20;7.18;;;18.70;99.90;;;;;;5018788;28;20026;-37
2023/06/25 06:30:04;;;;;;;10.18;7.25;;;18.90;99.90;;;;;;5027548;28;20102;-42
2023/06/25 06:32:30;;;;;;;12.05;7.85;;;19.10;99.90;;;;;;5025883;28;20693;-42
2023/06/25 06:34:55;;;;;;;9.43;7.25;;;19.30;99.90;;;;;;5024876;28;20040;-41
2023/06/25 06:37:21;;;;;;;13.23;8.35;;;19.40;99.90;;;;;;5026756;28;20842;-42
2023/06/25 06:39:47;;;;;;;10.55;6.28;;;19.50;99.90;;;;;;5025568;28;20034;-37
2023/06/25 06:42:12;;;;;;;9.63;6.85;;;19.50;99.90;;;;;;5023734;28;20068;-41
2023/06/25 06:44:38;;;;;;;7.43;6.65;;;19.70;99.90;;;;;;5024434;28;20026;-42
2023/06/25 06:47:04;;;;;;;9.98;6.72;;;19.80;99.90;;;;;;5023897;28;20048;-42
2023/06/25 06:49:29;;;;;;;8.65;6.63;;;19.90;99.90;;;;;;5027011;28;20084;-42
2023/06/25 06:51:55;;;;;;;8.48;6.25;;;20.00;99.90;;;;;;5025355;28;20096;-40
2023/06/25 06:54:20;;;;;;;10.13;6.70;;;20.20;99.90;;;;;;5023965;28;20034;-35
2023/06/25 06:56:46;;;;;;;7.50;6.07;;;20.40;99.90;;;;;;5022509;28;20022;-34
2023/06/25 06:59:11;;;;;;;8.20;6.30;;;20.40;99.90;;;;;;5022284;28;20029;-34
2023/06/25 07:01:37;;;;;;;8.52;6.32;;;20.60;99.90;;;;;;5020884;28;20558;-36
2023/06/25 07:04:03;;;;;;;10.98;6.55;;;20.80;99.90;;;;;;5024231;28;20025;-33
2023/06/25 07:06:28;;;;;;;9.10;6.28;;;20.90;99.90;;;;;;5025458;28;20044;-37
2023/06/25 07:08:54;;;;;;;8.27;6.72;;;20.90;99.90;;;;;;5026871;28;20680;-33
2023/06/25 07:11:20;;;;;;;9.20;6.22;;;21.00;99.90;;;;;;5023593;28;20377;-36
2023/06/25 07:13:46;;;;;;;8.35;5.88;;;21.00;99.90;;;;;;5023911;28;20029;-33
2023/06/25 07:16:12;;;;;;;9.05;6.82;;;21.20;99.90;;;;;;5021205;28;20394;-33
2023/06/25 07:18:38;;;;;;;8.38;5.90;;;21.30;99.90;;;;;;5024133;28;20024;-35
2023/06/25 07:21:05;;;;;;;8.05;6.03;;;21.40;99.90;;;;;;5021502;28;20034;-36
2023/06/25 07:23:31;;;;;;;10.03;5.90;;;21.60;99.90;;;;;;5019098;28;20497;-34
2023/06/25 07:25:57;;;;;;;7.70;5.95;;;21.60;99.90;;;;;;5018013;28;20037;-35
2023/06/25 07:28:22;;;;;;;6.97;5.88;;;21.60;99.90;;;;;;5021574;28;21859;-35
2023/06/25 07:30:48;;;;;;;6.80;5.35;;;21.70;99.90;;;;;;5020846;28;20387;-33
2023/06/25 07:33:13;;;;;;;7.78;5.70;;;21.90;99.90;;;;;;5021290;28;20072;-34
2023/06/25 07:35:39;;;;;;;7.82;5.97;;;22.00;99.90;;;;;;5014758;28;20503;-32
2023/06/25 07:38:05;;;;;;;6.75;5.53;;;22.10;99.90;;;;;;5020409;28;20121;-35
2023/06/25 07:40:30;;;;;;;7.40;5.10;;;22.20;99.90;;;;;;5025271;28;20030;-36
2023/06/25 07:42:56;;;;;;;7.75;5.30;;;22.30;99.90;;;;;;5020678;28;20069;-34
2023/06/25 07:45:21;;;;;;;7.25;5.85;;;22.50;99.90;;;;;;5022323;28;20037;-33
2023/06/25 07:47:47;;;;;;;6.97;4.95;;;22.50;99.90;;;;;;5021955;28;20035;-35
2023/06/25 07:50:12;;;;;;;5.40;4.68;;;22.50;99.90;;;;;;5021734;28;20037;-33
2023/06/25 07:52:38;;;;;;;7.38;5.25;;;22.50;99.90;;;;;;5017882;28;20128;-35
2023/06/25 07:55:04;;;;;;;5.95;5.10;;;22.50;99.90;;;;;;5022542;28;20033;-34
2023/06/25 07:57:29;;;;;;;7.28;5.18;;;22.60;99.90;;;;;;5024059;28;20478;-34
2023/06/25 07:59:55;;;;;;;7.25;5.45;;;22.80;99.90;;;;;;5019627;28;20029;-36
2023/06/25 08:02:21;;;;;;;6.35;5.38;;;22.80;99.90;;;;;;5016920;28;20064;-34
2023/06/25 08:04:47;;;;;;;6.78;5.15;;;23.10;99.90;;;;;;5018915;28;20044;-32
2023/06/25 08:07:13;;;;;;;6.82;5.45;;;23.00;99.90;;;;;;5021025;28;20034;-32
2023/06/25 08:09:38;;;;;;;6.82;5.57;;;23.00;99.90;;;;;;5020326;28;20025;-33
2023/06/25 08:12:04;;;;;;;7.97;5.68;;;23.00;99.90;;;;;;5025081;28;20103;-30
2023/06/25 08:14:30;;;;;;;7.00;5.72;;;23.10;99.90;;;;;;5023750;28;20407;-36
2023/06/25 08:16:55;;;;;;;7.32;5.57;;;23.40;99.90;;;;;;5023194;28;20033;-35
2023/06/25 08:19:21;;;;;;;7.85;5.40;;;23.30;99.90;;;;;;5022564;28;20510;-31
2023/06/25 08:21:47;;;;;;;6.63;5.03;;;23.50;99.90;;;;;;5022528;28;20117;-33
2023/06/25 08:24:12;;;;;;;6.75;5.50;;;23.50;99.90;;;;;;5023274;28;20038;-34
2023/06/25 08:26:38;;;;;;;7.68;5.57;;;23.70;99.90;;;;;;5020315;28;20030;-34
2023/06/25 08:29:04;;;;;;;8.27;5.47;;;23.50;99.90;;;;;;5023382;28;20045;-31
2023/06/25 08:31:29;;;;;;;7.63;5.40;;;23.60;99.90;;;;;;5021923;28;20117;-32
2023/06/25 08:33:55;;;;;;;7.10;5.55;;;23.80;99.90;;;;;;5025225;28;20128;-33
2023/06/25 08:36:21;;;;;;;6.18;4.90;;;24.00;99.90;;;;;;5024534;28;20026;-32
2023/06/25 08:38:46;;;;;;;8.85;5.85;;;24.00;99.90;;;;;;5024496;28;20029;-31
2023/06/25 08:41:12;;;;;;;7.40;5.25;;;24.10;99.90;;;;;;5023165;28;20028;-34
2023/06/25 08:43:37;;;;;;;7.00;4.97;;;24.00;99.90;;;;;;5022980;28;20384;-32
2023/06/25 08:46:03;;;;;;;7.07;5.10;;;24.20;99.90;;;;;;5022022;28;20084;-31
2023/06/25 08:48:30;;;;;;;6.95;4.90;;;24.20;99.90;;;;;;5025332;28;20116;-31
2023/06/25 08:51:00;;;;;;;6.50;4.47;;;24.20;99.90;;;;;;5021892;28;20034;-35
2023/06/25 08:53:28;;;;;;;7.28;5.50;;;24.20;99.90;;;;;;5026317;28;20375;-37
2023/06/25 08:55:56;;;;;;;5.53;4.45;;;24.40;99.90;;;;;;5018751;28;20025;-36
2023/06/25 08:58:21;;;;;;;;;;;24.70;99.90;;;;;;5022930;28;20034;-31
2023/06/25 09:00:48;;;;;;;5.88;5.15;;;24.90;99.90;;;;;;5019209;28;19967;-34
2023/06/25 09:03:13;;;;;;;6.82;5.30;;;25.00;99.90;;;;;;5023072;28;20045;-32
2023/06/25 09:05:39;;;;;;;6.72;4.95;;;24.90;99.90;;;;;;5005243;28;20522;-31
2023/06/25 09:08:12;;;;;;;8.13;4.95;;;24.70;99.90;;;;;;5019266;28;20038;-31
2023/06/25 09:10:38;;;;;;;7.28;5.00;;;24.60;99.90;;;;;;5019239;28;20041;-32
2023/06/25 09:13:04;;;;;;;6.65;4.85;;;24.60;99.90;;;;;;5021603;28;20014;-31
2023/06/25 09:15:29;;;;;;;5.93;5.20;;;25.00;99.90;;;;;;5023217;28;20022;-32
2023/06/25 09:17:56;;;;;;;8.05;5.10;;;25.10;99.90;;;;;;5020646;28;20112;-34
2023/06/25 09:20:22;;;;;;;8.17;5.17;;;25.00;99.90;;;;;;5019563;28;20040;-35
2023/06/25 09:22:57;;;;;;;6.88;5.13;;;25.20;99.90;;;;;;5022738;28;20287;-35
2023/06/25 09:25:31;;;;;;;10.25;5.00;;;25.20;99.90;;;;;;5022119;28;20040;-31
2023/06/25 09:27:59;;;;;;;5.82;5.03;;;24.90;99.90;;;;;;5017236;28;20549;-37
2023/06/25 09:30:25;;;;;;;7.53;5.07;;;24.80;99.90;;;;;;5018875;28;20029;-35
2023/06/25 09:32:52;;;;;;;5.65;4.22;;;24.90;99.90;;;;;;5020082;28;20029;-32
2023/06/25 09:35:22;;;;;;;5.72;4.47;;;25.00;99.90;;;;;;5022087;28;20030;-38
2023/06/25 09:37:51;;;;;;;6.55;5.25;;;24.90;99.90;;;;;;5020115;28;20554;-36
2023/06/25 09:40:17;;;;;;;7.38;4.70;;;25.10;99.90;;;;;;5025514;28;20029;-32
2023/06/25 09:42:45;;;;;;;6.10;5.18;;;25.10;99.90;;;;;;5020785;28;20049;-32
2023/06/25 09:45:16;;;;;;;7.03;5.20;;;25.40;99.90;;;;;;5020303;28;20041;-32
2023/06/25 09:47:45;;;;;;;6.40;4.55;;;25.30;99.90;;;;;;5020403;28;20124;-39
2023/06/25 09:50:18;;;;;;;6.93;5.05;;;25.20;99.90;;;;;;5023195;28;20381;-36
2023/06/25 09:52:52;;;;;;;6.57;4.57;;;25.10;99.90;;;;;;5023641;28;20569;-32
2023/06/25 09:55:20;;;;;;;4.88;4.38;;;25.30;99.90;;;;;;5019356;28;20036;-34
2023/06/25 09:57:47;;;;;;;6.78;5.50;;;25.60;99.90;;;;;;5030116;28;20116;-33
2023/06/25 10:00:13;;;;;;;6.95;4.80;;;25.90;99.90;;;;;;5017660;28;20021;-31
2023/06/25 10:02:39;;;;;;;6.55;5.35;;;26.10;99.90;;;;;;5022414;28;20031;-32
2023/06/25 10:05:05;;;;;;;5.40;4.47;;;26.10;99.90;;;;;;5017605;28;20141;-33
2023/06/25 10:07:31;;;;;;;6.03;5.10;;;26.10;99.90;;;;;;5024169;28;20033;-34
2023/06/25 10:09:56;;;;;;;6.43;4.88;;;26.40;99.90;;;;;;5024079;28;20033;-33
2023/06/25 10:12:23;;;;;;;8.73;4.53;;;26.20;99.90;;;;;;5024475;28;20510;-31
2023/06/25 10:14:48;;;;;;;7.65;5.07;;;26.10;99.90;;;;;;5021774;28;20037;-32
2023/06/25 10:17:14;;;;;;;6.95;5.18;;;26.40;99.90;;;;;;5023798;28;20026;-31
2023/06/25 10:19:58;;;;;;;7.63;4.80;;;26.80;99.90;;;;;;5004341;28;20021;-35
2023/06/25 10:22:25;;;;;;;6.22;5.20;;;26.40;99.90;;;;;;5024235;28;20030;-35
2023/06/25 10:24:53;;;;;;;7.63;5.25;;;26.00;99.90;;;;;;5021568;28;20036;-34
2023/06/25 10:27:36;;;;;;;5.80;4.63;;;25.90;99.90;;;;;;5021636;28;20034;-33
2023/06/25 10:30:12;;;;;;;5.93;4.70;;;26.00;99.90;;;;;;5021500;28;20025;-33
2023/06/25 10:32:39;;;;;;;8.20;5.10;;;26.00;99.90;;;;;;5021432;28;20034;-34
2023/06/25 10:35:05;;;;;;;6.27;4.97;;;26.00;99.90;;;;;;5022789;28;20033;-36
2023/06/25 10:37:33;;;;;;;6.85;5.10;;;26.00;99.90;;;;;;5018612;28;20335;-33
2023/06/25 10:40:04;;;;;;;5.95;4.75;;;26.00;99.90;;;;;;5019732;28;20107;-34
2023/06/25 10:42:31;;;;;;;6.93;4.68;;;25.90;99.90;;;;;;5019092;28;20782;-33
2023/06/25 10:44:57;;;;;;;5.47;4.63;;;26.10;99.90;;;;;;5023731;28;20057;-37
2023/06/25 10:47:22;;;;;;;6.13;4.68;;;26.30;99.90;;;;;;5002723;28;20502;-33
2023/06/25 10:49:48;;;;;;;6.68;5.18;;;26.30;99.90;;;;;;5025615;28;20120;-34
2023/06/25 10:52:14;;;;;;;6.97;5.20;;;26.30;99.90;;;;;;5020203;28;20080;-38
2023/06/25 10:54:39;;;;;;;6.60;4.85;;;26.10;99.90;;;;;;5021763;28;20441;-34
2023/06/25 10:57:10;;;;;;;6.47;5.45;;;26.10;99.90;;;;;;5024591;28;20025;-33
2023/06/25 10:59:37;;;;;;;6.30;4.70;;;26.00;99.90;;;;;;5021027;28;20033;-33
2023/06/25 11:02:14;;;;;;;6.67;4.40;;;26.10;99.90;;;;;;5022920;28;20041;-37
2023/06/25 11:04:49;;;;;;;6.28;4.80;;;26.20;99.90;;;;;;5023582;28;20037;-37
2023/06/25 11:07:14;;;;;;;7.40;4.90;;;26.20;99.90;;;;;;5022889;28;20116;-33
2023/06/25 11:09:40;;;;;;;6.50;4.93;;;26.20;99.90;;;;;;5020457;28;20231;-33
2023/06/25 11:12:07;;;;;;;5.63;4.88;;;26.30;99.90;;;;;;5023215;28;20033;-33
2023/06/25 11:14:33;;;;;;;6.63;5.10;;;26.80;99.90;;;;;;5022912;28;20076;-32
2023/06/25 11:16:59;;;;;;;7.18;4.68;;;26.90;99.90;;;;;;5024414;28;20051;-35
2023/06/25 11:19:26;;;;;;;5.72;4.68;;;26.70;99.90;;;;;;5004906;28;20656;-36
2023/06/25 11:21:51;;;;;;;7.32;5.40;;;26.70;99.90;;;;;;5023084;28;20037;-33
2023/06/25 11:24:18;;;;;;;6.78;5.35;;;26.80;99.90;;;;;;5022955;28;21016;-33
2023/06/25 11:26:44;;;;;;;7.70;5.50;;;26.80;99.90;;;;;;5023180;28;20040;-36
2023/06/25 11:29:10;;;;;;;5.75;4.72;;;26.80;99.90;;;;;;5025303;28;20060;-35
2023/06/25 11:31:48;;;;;;;7.00;5.20;;;26.90;99.90;;;;;;5024857;28;20041;-35
2023/06/25 11:34:20;;;;;;;;;;;26.90;99.90;;;;;;5022799;28;20490;-40
2023/06/25 11:36:47;;;;;;;5.72;4.47;;;27.20;99.90;;;;;;5024523;28;19952;-36
2023/06/25 11:39:13;;;;;;;6.07;4.50;;;27.00;99.90;;;;;;5023723;28;20087;-34
2023/06/25 11:41:39;;;;;;;6.00;4.70;;;27.00;99.90;;;;;;5023125;28;20034;-32
2023/06/25 11:44:15;;;;;;;9.13;4.93;;;27.00;99.90;;;;;;5020852;28;20525;-33
2023/06/25 11:46:41;;;;;;;7.07;4.90;;;27.00;99.90;;;;;;5019343;28;20022;-31
2023/06/25 11:49:08;;;;;;;5.15;4.35;;;27.10;99.90;;;;;;5019304;28;20037;-32
2023/06/25 11:51:34;;;;;;;6.47;5.13;;;27.20;99.90;;;;;;5017051;28;20059;-31
2023/06/25 11:53:59;;;;;;;5.93;4.45;;;27.10;99.90;;;;;;5021353;28;20487;-32
2023/06/25 11:56:25;;;;;;;4.82;4.30;;;27.20;99.90;;;;;;5022894;28;20047;-31
2023/06/25 11:58:50;;;;;;;5.93;4.75;;;27.40;99.90;;;;;;5023551;28;20430;-32
2023/06/25 12:01:17;;;;;;;7.43;4.50;;;27.40;99.90;;;;;;5020213;28;20048;-34
2023/06/25 12:03:43;;;;;;;5.53;4.60;;;27.50;99.90;;;;;;5023239;28;20033;-34
2023/06/25 12:06:08;;;;;;;5.40;4.57;;;27.80;99.90;;;;;;5021403;28;20049;-32
2023/06/25 12:08:34;;;;;;;7.72;4.82;;;27.80;99.90;;;;;;5018414;28;20036;-33
2023/06/25 12:10:59;;;;;;;5.75;4.63;;;27.20;99.90;;;;;;5023448;28;20041;-32
2023/06/25 12:13:25;;;;;;;7.18;4.78;;;27.20;99.90;;;;;;5020133;28;20069;-33
2023/06/25 12:15:50;;;;;;;5.32;4.15;;;27.50;99.90;;;;;;5023977;28;20033;-32
2023/06/25 12:18:16;;;;;;;6.65;5.95;;;27.80;99.90;;;;;;5020469;28;20026;-32
2023/06/25 12:20:42;;;;;;;5.32;4.80;;;28.10;99.90;;;;;;5024363;28;20033;-33
2023/06/25 12:23:07;;;;;;;5.25;4.40;;;28.20;99.90;;;;;;5017320;28;20117;-32
2023/06/25 12:25:33;;;;;;;6.78;4.45;;;28.20;99.90;;;;;;5022967;28;20032;-34
2023/06/25 12:27:58;;;;;;;6.40;4.63;;;27.90;99.90;;;;;;5023639;28;20139;-35
2023/06/25 12:30:25;;;;;;;5.68;4.85;;;27.90;99.90;;;;;;5023494;28;20029;-36
2023/06/25 12:32:50;;;;;;;4.93;4.43;;;27.90;99.90;;;;;;5021443;28;20030;-36
2023/06/25 12:35:16;;;;;;;5.50;4.15;;;28.20;99.90;;;;;;5019242;28;20510;-34
2023/06/25 12:37:42;;;;;;;6.15;4.60;;;28.70;99.90;;;;;;5023393;28;20029;-32
2023/06/25 12:40:09;;;;;;;5.15;4.05;;;28.50;99.90;;;;;;5019025;28;20096;-36
2023/06/25 12:42:34;;;;;;;36.03;6.20;;;28.40;99.90;;;;;;5022297;28;20042;-33